Home   Weather   USA   Culberson County   Past weeks
Flag for USA

Past Weather in Culberson County, Texas, USA — Yesterday and Last 2 Weeks

Currently: 99 °F. Scattered clouds. (Weather station: Pecos Municipal Airport, USA). See more current weather

Past Weather in Culberson County — Graph

°F

Culberson County Temperature Yesterday

Maximum temperature yesterday: 91 °F (at 5:55 pm)
Minimum temperature yesterday: 69 °F (at 6:55 am)
Average temperature yesterday: 79 °F

High & Low Weather Summary for the Past Weeks

 TemperatureHumidityPressure
High106 °F (May 28, 4:20 pm)74% (May 29, 6:55 am)30.15 "Hg (May 29, 6:55 am)
Low52 °F (May 17, 4:35 am)2% (May 23, 6:35 pm)29.62 "Hg (May 15, 6:35 pm)
Average82 °F21%29.85 "Hg
* Reported May 15 2:15 pm — May 30 2:15 pm, Culberson County. Weather by CustomWeather, © 2024

Note: Actual official high and low records may vary slightly from our data, if they occured in-between our weather recording intervals... More about our weather records

Culberson County Weather History for the Previous 24 Hours

Scroll right to see more
 ConditionsComfort  
Time TempWeatherWind HumidityBarometerVisibility
2:15 pm
Thu, May 30
99 °FScattered clouds.3 mph10%29.83 "Hg10 mi
1:55 pm98 °FScattered clouds.3 mph10%29.84 "Hg10 mi
1:15 pm96 °FSunny.5 mph14%29.86 "Hg10 mi
12:55 pm95 °FSunny.No wind14%29.88 "Hg10 mi
12:15 pm93 °FSunny.No wind20%29.89 "Hg10 mi
11:55 am91 °FSunny.3 mph23%29.89 "Hg10 mi
11:15 am89 °FSunny.7 mph28%29.91 "Hg10 mi
10:55 am86 °FSunny.6 mph37%29.91 "Hg10 mi
10:35 am83 °FSunny.No wind46%29.92 "Hg10 mi
10:15 am82 °FSunny.No wind51%29.93 "Hg10 mi
9:55 am80 °FSunny.No wind56%29.93 "Hg10 mi
9:35 am78 °FSunny.No wind59%29.93 "Hg10 mi
9:15 am76 °FSunny.No wind63%29.93 "Hg10 mi
8:55 am75 °FSunny.No wind65%29.93 "Hg10 mi
7:55 am73 °FSunny.No wind66%29.93 "Hg10 mi
6:55 am71 °FSunny.No wind70%29.92 "Hg10 mi
6:15 am73 °FMild.6 mph67%29.91 "Hg10 mi
5:55 am73 °FMild.7 mph66%29.90 "Hg10 mi
5:15 am74 °FMild.12 mph65%29.91 "Hg10 mi
4:55 am74 °FMild.10 mph64%29.91 "Hg10 mi
4:15 am75 °FMild.10 mph62%29.92 "Hg10 mi
3:35 am76 °FMild.12 mph60%29.92 "Hg10 mi
2:55 am77 °FWarm.13 mph57%29.91 "Hg10 mi
2:15 am77 °FWarm.12 mph55%29.92 "Hg10 mi
1:55 am78 °FWarm.13 mph53%29.92 "Hg10 mi
1:15 am78 °FClear.9 mph53%29.92 "Hg10 mi
12:55 am78 °FWarm.8 mph54%29.92 "Hg10 mi
11:55 pm
Wed, May 29
80 °FWarm.6 mph53%29.92 "Hg10 mi
11:35 pm81 °FWarm.7 mph52%29.93 "Hg10 mi
11:15 pm82 °FWarm.7 mph51%29.92 "Hg10 mi
10:55 pm82 °FWarm.9 mph49%29.92 "Hg10 mi
10:15 pm83 °FClear.9 mph44%29.92 "Hg10 mi
9:35 pm85 °FPassing clouds.13 mph38%29.91 "Hg10 mi
9:15 pm88 °FClear.15 mph37%29.91 "Hg10 mi
8:15 pm90 °FSunny.8 mph32%29.90 "Hg10 mi
7:15 pm91 °FSunny.8 mph29%29.91 "Hg10 mi
6:55 pm91 °FSunny.6 mph29%29.92 "Hg10 mi
6:35 pm90 °FSunny.3 mph30%29.92 "Hg10 mi
6:15 pm91 °FSunny.No wind29%29.93 "Hg10 mi
5:55 pm91 °FSunny.6 mph31%29.93 "Hg10 mi
4:55 pm90 °FSunny.9 mph31%29.96 "Hg10 mi
4:15 pm89 °FSunny.6 mph34%29.98 "Hg10 mi
3:55 pm88 °FScattered clouds.5 mph35%29.99 "Hg10 mi
3:35 pm87 °FScattered clouds.6 mph38%30.00 "Hg10 mi
Weather by CustomWeather, © 2024

See weather overview